createdAt,value
2022-12-09T00:01:31.343Z,12.43
2022-12-09T00:03:58.752Z,15.13
2022-12-09T00:06:28.076Z,15.60
2022-12-09T00:08:56.613Z,13.63
2022-12-09T00:11:24.879Z,12.97
2022-12-09T00:13:53.274Z,12.53
2022-12-09T00:16:21.180Z,14.90
2022-12-09T00:18:47.916Z,17.70
2022-12-09T00:21:15.272Z,15.13
2022-12-09T00:23:41.955Z,16.30
2022-12-09T00:26:08.558Z,13.90
2022-12-09T00:28:35.297Z,12.80
2022-12-09T00:31:02.641Z,12.50
2022-12-09T00:33:34.091Z,13.17
2022-12-09T00:36:09.857Z,12.90
2022-12-09T00:38:37.262Z,13.50
2022-12-09T00:41:04.583Z,14.33
2022-12-09T00:43:31.255Z,13.60
2022-12-09T00:45:58.174Z,12.20
2022-12-09T00:48:26.213Z,11.13
2022-12-09T00:50:52.931Z,14.83
2022-12-09T00:53:19.606Z,14.47
2022-12-09T00:55:46.315Z,14.70
2022-12-09T00:58:14.047Z,13.90
2022-12-09T01:00:41.032Z,12.40
2022-12-09T01:03:12.823Z,14.50
2022-12-09T01:05:40.358Z,14.50
2022-12-09T01:08:06.972Z,15.10
2022-12-09T01:10:34.418Z,12.30
2022-12-09T01:13:01.172Z,13.70
2022-12-09T01:15:27.913Z,14.37
2022-12-09T01:17:54.686Z,13.13
2022-12-09T01:20:21.282Z,14.03
2022-12-09T01:22:47.758Z,15.17
2022-12-09T01:25:14.664Z,14.40
2022-12-09T01:27:41.897Z,13.77
2022-12-09T01:30:11.915Z,17.73
2022-12-09T01:32:38.818Z,17.42
2022-12-09T01:35:06.181Z,14.67
2022-12-09T01:37:34.158Z,13.20
2022-12-09T01:40:00.837Z,11.87
2022-12-09T01:42:27.660Z,14.10
2022-12-09T01:45:22.071Z,14.73
2022-12-09T01:47:52.736Z,17.83
2022-12-09T01:50:19.576Z,13.48
2022-12-09T01:52:47.558Z,16.90
2022-12-09T01:55:14.665Z,11.97
2022-12-09T01:57:42.974Z,16.40
2022-12-09T02:00:10.391Z,13.53
2022-12-09T02:02:38.296Z,13.37
2022-12-09T02:05:05.980Z,15.23
2022-12-09T02:07:33.444Z,17.77
2022-12-09T02:10:00.286Z,13.17
2022-12-09T02:12:46.847Z,15.67
2022-12-09T02:15:30.827Z,16.30
2022-12-09T02:18:01.803Z,16.60
2022-12-09T02:20:38.816Z,14.80
2022-12-09T02:23:12.212Z,15.83
2022-12-09T02:26:07.382Z,14.63
2022-12-09T02:28:52.697Z,14.90
2022-12-09T02:31:40.786Z,13.03
2022-12-09T02:34:22.257Z,16.73
2022-12-09T02:37:16.971Z,14.50
2022-12-09T02:40:05.777Z,17.27
2022-12-09T02:42:35.863Z,19.50
2022-12-09T02:45:06.300Z,15.77
2022-12-09T02:47:36.851Z,16.90
2022-12-09T02:50:08.654Z,18.92
2022-12-09T02:52:35.926Z,14.70
2022-12-09T02:55:07.027Z,16.40
2022-12-09T02:57:36.036Z,19.00
2022-12-09T03:00:04.909Z,14.40
2022-12-09T03:02:35.929Z,14.63
2022-12-09T03:05:24.532Z,14.33
2022-12-09T03:08:46.739Z,12.70
2022-12-09T03:11:18.696Z,13.27
2022-12-09T03:14:04.495Z,14.60
2022-12-09T03:16:36.054Z,14.63
2022-12-09T03:19:20.706Z,14.60
2022-12-09T03:21:50.006Z,14.83
2022-12-09T03:24:20.827Z,14.10
2022-12-09T03:29:19.873Z,19.13
2022-12-09T03:31:48.643Z,14.80
2022-12-09T03:34:20.037Z,13.50
2022-12-09T03:36:49.364Z,14.43
2022-12-09T03:39:20.459Z,15.50
2022-12-09T03:41:55.650Z,13.57
2022-12-09T03:44:30.630Z,13.23
2022-12-09T03:46:57.783Z,13.37
2022-12-09T03:49:24.290Z,15.00
2022-12-09T03:51:57.342Z,16.13
2022-12-09T03:54:40.855Z,11.77
2022-12-09T03:57:17.031Z,13.07
2022-12-09T03:59:51.485Z,15.00
2022-12-09T04:02:18.503Z,13.23
2022-12-09T04:04:45.177Z,14.37
2022-12-09T04:07:11.922Z,12.37
2022-12-09T04:09:38.834Z,13.30
2022-12-09T04:12:05.587Z,13.03
2022-12-09T04:14:32.303Z,11.90
2022-12-09T04:16:59.408Z,13.90
2022-12-09T04:19:26.135Z,14.33
2022-12-09T04:21:52.788Z,13.97
2022-12-09T04:24:19.540Z,13.67
2022-12-09T04:26:46.815Z,12.40
2022-12-09T04:29:13.825Z,15.37
2022-12-09T04:31:40.593Z,13.90
2022-12-09T04:34:09.953Z,16.63
2022-12-09T04:36:37.318Z,14.80
2022-12-09T04:39:04.220Z,13.27
2022-12-09T04:41:31.018Z,14.17
2022-12-09T04:43:57.586Z,13.00
2022-12-09T04:46:24.161Z,13.20
2022-12-09T04:48:50.796Z,14.40
2022-12-09T04:51:18.281Z,14.87
2022-12-09T04:53:45.217Z,17.93
2022-12-09T04:56:16.529Z,19.33
2022-12-09T04:58:43.031Z,18.83
2022-12-09T05:01:13.230Z,19.37
2022-12-09T05:03:40.591Z,13.57
2022-12-09T05:06:11.007Z,17.00
2022-12-09T05:08:38.599Z,16.17
2022-12-09T05:11:06.239Z,17.00
2022-12-09T05:13:33.734Z,14.03
2022-12-09T05:16:09.290Z,15.83
2022-12-09T05:18:38.941Z,13.40
2022-12-09T05:21:09.929Z,15.83
2022-12-09T05:23:37.149Z,17.47
2022-12-09T05:26:10.051Z,15.73
2022-12-09T05:28:37.203Z,14.07
2022-12-09T05:31:06.436Z,14.17
2022-12-09T05:33:33.579Z,15.57
2022-12-09T05:36:00.660Z,12.40
2022-12-09T05:38:27.600Z,16.20
2022-12-09T05:40:54.733Z,14.97
2022-12-09T05:43:21.193Z,17.43
2022-12-09T05:45:47.903Z,12.63
2022-12-09T05:48:14.856Z,15.73
2022-12-09T05:50:41.672Z,15.27
2022-12-09T05:53:08.492Z,13.23
2022-12-09T05:55:35.087Z,13.23
2022-12-09T05:58:02.105Z,12.17
2022-12-09T06:00:28.626Z,17.07
2022-12-09T06:02:55.609Z,21.13
2022-12-09T06:05:22.847Z,31.00
2022-12-09T06:07:49.844Z,26.77
2022-12-09T06:10:17.369Z,25.43
2022-12-09T06:12:44.235Z,30.50
2022-12-09T06:15:12.756Z,25.87
2022-12-09T06:17:42.547Z,24.13
2022-12-09T06:20:09.918Z,27.63
2022-12-09T06:22:36.983Z,20.60
2022-12-09T06:25:04.549Z,20.70
2022-12-09T06:27:31.423Z,17.60
2022-12-09T06:29:58.347Z,24.60
2022-12-09T06:32:25.256Z,23.60
2022-12-09T06:34:52.251Z,18.17
2022-12-09T06:37:18.854Z,17.73
2022-12-09T06:39:45.732Z,18.93
2022-12-09T06:42:12.635Z,19.70
2022-12-09T06:44:38.949Z,18.73
2022-12-09T06:47:06.823Z,15.67
2022-12-09T06:49:33.737Z,16.07
2022-12-09T06:52:00.628Z,17.30
2022-12-09T06:54:27.832Z,18.33
2022-12-09T06:56:54.496Z,21.90
2022-12-09T06:59:21.235Z,17.47
2022-12-09T07:01:47.891Z,16.57
2022-12-09T07:04:15.041Z,21.50
2022-12-09T07:06:44.481Z,17.00
2022-12-09T07:09:13.908Z,21.53
2022-12-09T07:11:40.960Z,22.23
2022-12-09T07:14:07.600Z,25.53
2022-12-09T07:16:35.101Z,19.87
2022-12-09T07:19:02.802Z,20.40
2022-12-09T07:21:29.777Z,23.27
2022-12-09T07:24:00.239Z,31.10
2022-12-09T07:26:26.917Z,22.35
2022-12-09T07:28:53.777Z,29.20
2022-12-09T07:31:22.234Z,33.97
2022-12-09T07:33:49.993Z,28.50
2022-12-09T07:36:20.969Z,25.97
2022-12-09T07:38:48.293Z,27.07
2022-12-09T07:41:14.855Z,33.23
2022-12-09T07:43:41.607Z,26.03
2022-12-09T07:46:08.615Z,27.33
2022-12-09T07:48:36.008Z,31.17
2022-12-09T07:51:04.159Z,34.27
2022-12-09T07:53:35.244Z,28.83
2022-12-09T07:56:06.671Z,34.23
2022-12-09T07:58:34.272Z,33.67
2022-12-09T08:01:08.881Z,32.97
2022-12-09T08:03:36.712Z,45.53
2022-12-09T08:06:04.277Z,71.27
2022-12-09T08:08:32.984Z,54.40
2022-12-09T08:11:13.787Z,52.17
2022-12-09T08:13:41.143Z,47.97
2022-12-09T08:16:10.790Z,35.60
2022-12-09T08:18:38.200Z,32.93
2022-12-09T08:21:07.545Z,31.10
2022-12-09T08:23:34.400Z,33.77
2022-12-09T08:26:01.793Z,30.90
2022-12-09T08:28:29.869Z,29.03
2022-12-09T08:30:57.370Z,30.63
2022-12-09T08:33:25.407Z,41.00
2022-12-09T08:35:52.391Z,31.57
2022-12-09T08:38:19.187Z,31.00
2022-12-09T08:40:46.331Z,36.30
2022-12-09T08:43:12.862Z,35.43
2022-12-09T08:45:42.410Z,27.90
2022-12-09T08:48:09.579Z,32.13
2022-12-09T08:50:36.354Z,33.37
2022-12-09T08:53:03.270Z,29.57
2022-12-09T08:55:30.143Z,31.50
2022-12-09T08:57:57.320Z,38.60
2022-12-09T09:00:24.249Z,31.20
2022-12-09T09:02:51.050Z,30.80
2022-12-09T09:05:18.720Z,30.03
2022-12-09T09:07:45.782Z,36.03
2022-12-09T09:10:13.390Z,40.77
2022-12-09T09:12:43.613Z,26.13
2022-12-09T09:15:11.625Z,33.10
2022-12-09T09:17:38.626Z,24.73
2022-12-09T09:20:06.234Z,30.93
2022-12-09T09:22:35.307Z,35.13
2022-12-09T09:25:02.341Z,30.37
2022-12-09T09:27:29.212Z,32.73
2022-12-09T09:29:55.769Z,35.83
2022-12-09T09:32:22.436Z,30.73
2022-12-09T09:34:49.368Z,29.60
2022-12-09T09:37:17.130Z,38.53
2022-12-09T09:39:43.926Z,26.93
2022-12-09T09:42:17.269Z,29.67
2022-12-09T09:44:45.485Z,28.00
2022-12-09T09:47:16.808Z,31.67
2022-12-09T09:50:00.763Z,28.47
2022-12-09T09:52:29.798Z,26.17
2022-12-09T09:54:57.871Z,29.17
2022-12-09T09:57:33.305Z,30.83
2022-12-09T10:00:15.745Z,30.27
2022-12-09T10:02:51.415Z,34.30
2022-12-09T10:05:30.419Z,28.67
2022-12-09T10:08:20.917Z,29.07
2022-12-09T10:11:13.389Z,30.63
2022-12-09T10:13:48.421Z,34.43
2022-12-09T10:16:27.980Z,28.23
2022-12-09T10:19:09.785Z,30.23
2022-12-09T10:21:41.540Z,32.73
2022-12-09T10:24:20.601Z,28.20
2022-12-09T10:26:57.072Z,30.30
2022-12-09T10:29:35.742Z,27.23
2022-12-09T10:32:02.816Z,27.53
2022-12-09T10:34:30.315Z,28.80
2022-12-09T10:36:57.224Z,28.07
2022-12-09T10:39:23.604Z,24.33
2022-12-09T10:41:57.242Z,29.27
2022-12-09T10:44:25.507Z,31.83
2022-12-09T10:47:06.487Z,31.60
2022-12-09T10:49:35.912Z,29.33
2022-12-09T10:52:03.097Z,28.03
2022-12-09T10:54:36.499Z,32.43
2022-12-09T10:57:12.495Z,24.07
2022-12-09T10:59:40.861Z,27.17
2022-12-09T11:02:10.319Z,33.60
2022-12-09T11:04:40.562Z,21.20
2022-12-09T11:07:07.566Z,32.73
2022-12-09T11:09:37.852Z,30.70
2022-12-09T11:12:07.636Z,28.45
2022-12-09T11:14:40.545Z,31.60
2022-12-09T11:17:31.615Z,26.73
2022-12-09T11:22:45.892Z,27.67
2022-12-09T11:25:13.000Z,26.40
2022-12-09T11:27:41.469Z,25.50
2022-12-09T11:30:30.747Z,35.40
2022-12-09T11:33:06.243Z,29.73
2022-12-09T11:35:45.104Z,26.27
2022-12-09T11:38:34.602Z,29.37
2022-12-09T11:41:03.379Z,25.67
2022-12-09T11:43:35.251Z,26.80
2022-12-09T11:46:26.680Z,35.90
2022-12-09T11:48:55.445Z,28.60
2022-12-09T11:51:28.749Z,27.43
2022-12-09T11:54:18.875Z,32.03
2022-12-09T11:56:45.366Z,41.27
2022-12-09T11:59:15.207Z,41.13
2022-12-09T12:02:12.012Z,31.23
2022-12-09T12:04:46.413Z,34.30
2022-12-09T12:07:32.311Z,34.73
2022-12-09T12:09:58.843Z,34.00
2022-12-09T12:12:37.511Z,36.93
2022-12-09T12:15:16.454Z,33.67
2022-12-09T12:17:50.148Z,38.13
2022-12-09T12:20:16.676Z,37.30
2022-12-09T12:23:06.772Z,31.20
2022-12-09T12:25:44.527Z,33.57
2022-12-09T12:28:32.040Z,32.47
2022-12-09T12:31:27.410Z,35.50
2022-12-09T12:34:24.097Z,38.60
2022-12-09T12:37:43.208Z,32.80
2022-12-09T12:40:40.150Z,35.50
2022-12-09T12:43:27.797Z,38.23
2022-12-09T12:46:04.186Z,38.93
2022-12-09T12:49:15.857Z,34.87
2022-12-09T12:51:55.193Z,30.67
2022-12-09T12:54:30.438Z,39.40
2022-12-09T12:56:56.966Z,34.57
2022-12-09T12:59:56.263Z,38.50
2022-12-09T13:02:39.409Z,32.57
2022-12-09T13:05:22.113Z,34.03
2022-12-09T13:08:01.893Z,37.85
2022-12-09T13:10:40.375Z,35.80
2022-12-09T13:13:18.683Z,30.10
2022-12-09T13:15:50.137Z,33.93
2022-12-09T13:18:23.042Z,34.70
2022-12-09T13:20:58.160Z,34.53
2022-12-09T13:23:43.308Z,42.37
2022-12-09T13:26:39.767Z,36.10
2022-12-09T13:29:06.721Z,36.97
2022-12-09T13:31:36.820Z,29.53
2022-12-09T13:34:18.519Z,41.90
2022-12-09T13:36:47.732Z,32.80
2022-12-09T13:39:39.137Z,34.07
2022-12-09T13:42:25.891Z,42.17
2022-12-09T13:45:05.593Z,32.43
2022-12-09T13:47:36.467Z,34.90
2022-12-09T13:52:46.536Z,31.73
2022-12-09T13:55:47.115Z,30.05
2022-12-09T13:58:35.219Z,34.17
2022-12-09T14:01:04.677Z,32.07
2022-12-09T14:03:35.693Z,38.40
2022-12-09T14:06:15.614Z,37.40
2022-12-09T14:08:48.804Z,32.67
2022-12-09T14:11:36.990Z,36.13
2022-12-09T14:14:24.660Z,36.60
2022-12-09T14:16:56.935Z,30.70
2022-12-09T14:19:26.058Z,35.23
2022-12-09T14:22:17.708Z,35.60
2022-12-09T14:24:51.762Z,38.10
2022-12-09T14:27:32.139Z,42.43
2022-12-09T14:30:18.822Z,42.15
2022-12-09T14:32:56.010Z,41.30
2022-12-09T14:35:46.278Z,37.47
2022-12-09T14:39:22.465Z,40.05
2022-12-09T14:42:03.455Z,39.13
2022-12-09T14:45:03.071Z,44.40
2022-12-09T14:47:32.874Z,51.13
2022-12-09T14:50:14.478Z,45.40
2022-12-09T14:53:00.524Z,47.37
2022-12-09T14:55:29.013Z,51.00
2022-12-09T14:57:58.246Z,48.33
2022-12-09T15:00:37.033Z,42.50
2022-12-09T15:03:39.389Z,43.53
2022-12-09T15:06:13.098Z,42.20
2022-12-09T15:08:41.261Z,45.33
2022-12-09T15:11:18.245Z,47.83
2022-12-09T15:13:47.878Z,46.73
2022-12-09T15:16:18.092Z,47.17
2022-12-09T15:18:45.405Z,45.58
2022-12-09T15:21:26.349Z,47.30
2022-12-09T15:26:19.428Z,53.93
2022-12-09T15:28:50.667Z,49.57
2022-12-09T15:31:22.473Z,45.73
2022-12-09T15:33:51.586Z,49.93
2022-12-09T15:36:38.828Z,48.83
2022-12-09T15:39:07.514Z,54.47
2022-12-09T15:41:38.505Z,52.63
2022-12-09T15:44:11.132Z,52.03
2022-12-09T15:46:41.735Z,54.70
2022-12-09T15:49:11.904Z,50.60
2022-12-09T15:51:42.500Z,54.22
2022-12-09T15:54:14.786Z,50.20
2022-12-09T15:56:48.946Z,46.20
2022-12-09T15:59:37.069Z,55.13
2022-12-09T16:02:03.997Z,47.17
2022-12-09T16:04:37.935Z,51.03
2022-12-09T16:07:06.202Z,45.07
2022-12-09T16:09:32.948Z,53.60
2022-12-09T16:11:59.680Z,55.30
2022-12-09T16:14:26.342Z,52.00
2022-12-09T16:17:03.723Z,48.80
2022-12-09T16:19:33.120Z,49.57
2022-12-09T16:22:09.180Z,49.27
2022-12-09T16:25:13.132Z,48.93
2022-12-09T16:27:33.438Z,50.60
2022-12-09T16:30:12.615Z,48.97
2022-12-09T16:32:47.425Z,47.93
2022-12-09T16:35:16.846Z,48.83
2022-12-09T16:38:12.500Z,41.90
2022-12-09T16:40:45.175Z,49.13
2022-12-09T16:43:17.277Z,49.13
2022-12-09T16:46:05.035Z,50.13
2022-12-09T16:48:31.464Z,51.50
2022-12-09T16:51:10.926Z,51.97
2022-12-09T16:53:49.599Z,56.10
2022-12-09T16:56:27.957Z,50.30
2022-12-09T16:58:54.612Z,51.90
2022-12-09T17:01:24.546Z,52.57
2022-12-09T17:03:56.111Z,53.63
2022-12-09T17:06:22.438Z,81.27
2022-12-09T17:08:48.780Z,62.27
2022-12-09T17:11:15.227Z,58.87
2022-12-09T17:13:41.599Z,60.40
2022-12-09T17:16:08.535Z,47.93
2022-12-09T17:18:35.182Z,49.17
2022-12-09T17:21:19.728Z,49.07
2022-12-09T17:23:46.882Z,50.53
2022-12-09T17:26:15.828Z,56.37
2022-12-09T17:28:43.269Z,54.57
2022-12-09T17:31:13.150Z,52.93
2022-12-09T17:33:39.897Z,51.80
2022-12-09T17:36:07.256Z,50.77
2022-12-09T17:38:33.996Z,52.47
2022-12-09T17:41:09.247Z,52.20
2022-12-09T17:43:36.054Z,54.20
2022-12-09T17:46:04.752Z,57.93
2022-12-09T17:48:32.807Z,51.73
2022-12-09T17:50:59.208Z,54.60
2022-12-09T17:53:25.526Z,58.93
2022-12-09T17:55:51.850Z,53.63
2022-12-09T17:58:18.229Z,53.57
2022-12-09T18:00:44.715Z,55.57
2022-12-09T18:03:17.912Z,62.47
2022-12-09T18:05:48.680Z,54.83
2022-12-09T18:08:15.386Z,54.07
2022-12-09T18:10:41.809Z,53.07
2022-12-09T18:13:08.195Z,56.07
2022-12-09T18:15:36.564Z,61.17
2022-12-09T18:18:03.120Z,60.07
2022-12-09T18:20:29.563Z,53.47
2022-12-09T18:22:55.891Z,52.13
2022-12-09T18:25:22.219Z,53.30
2022-12-09T18:27:48.548Z,54.33
2022-12-09T18:30:14.872Z,61.53
2022-12-09T18:32:41.283Z,83.80
2022-12-09T18:35:08.009Z,69.03
2022-12-09T18:37:34.340Z,57.53
2022-12-09T18:40:00.854Z,61.73
2022-12-09T18:42:27.493Z,60.17
2022-12-09T18:44:54.226Z,62.03
2022-12-09T18:47:20.678Z,58.87
2022-12-09T18:49:47.191Z,51.90
2022-12-09T18:52:13.947Z,56.23
2022-12-09T18:54:40.550Z,52.37
2022-12-09T18:57:07.222Z,53.57
2022-12-09T18:59:33.623Z,60.30
2022-12-09T19:01:59.948Z,55.20
2022-12-09T19:04:28.676Z,54.40
2022-12-09T19:06:57.760Z,53.93
2022-12-09T19:09:30.372Z,63.93
2022-12-09T19:11:56.781Z,65.00
2022-12-09T19:14:23.738Z,60.03
2022-12-09T19:16:51.728Z,57.20
2022-12-09T19:19:22.636Z,57.13
2022-12-09T19:21:49.967Z,59.83
2022-12-09T19:24:22.437Z,56.70
2022-12-09T19:26:49.262Z,64.67
2022-12-09T19:29:16.151Z,59.67
2022-12-09T19:31:46.185Z,62.00
2022-12-09T19:34:16.070Z,61.28
2022-12-09T19:36:44.038Z,71.23
2022-12-09T19:39:12.163Z,59.80
2022-12-09T19:41:38.921Z,64.30
2022-12-09T19:44:05.730Z,63.63
2022-12-09T19:46:33.511Z,59.67
2022-12-09T19:49:00.596Z,61.93
2022-12-09T19:51:27.525Z,59.57
2022-12-09T19:53:56.270Z,59.60
2022-12-09T19:56:23.440Z,63.50
2022-12-09T19:58:50.437Z,51.33
2022-12-09T20:01:23.824Z,62.47
2022-12-09T20:04:13.647Z,61.90
2022-12-09T20:06:48.871Z,64.33
2022-12-09T20:09:17.184Z,58.63
2022-12-09T20:11:43.992Z,66.73
2022-12-09T20:14:13.153Z,56.60
2022-12-09T20:16:39.894Z,57.63
2022-12-09T20:19:06.459Z,61.67
2022-12-09T20:21:32.860Z,55.30
2022-12-09T20:24:01.365Z,59.50
2022-12-09T20:26:29.930Z,56.03
2022-12-09T20:28:57.889Z,59.23
2022-12-09T20:31:26.766Z,63.73
2022-12-09T20:34:01.704Z,57.03
2022-12-09T20:36:30.810Z,64.73
2022-12-09T20:38:59.858Z,62.57
2022-12-09T20:41:27.322Z,58.80
2022-12-09T20:43:59.274Z,61.17
2022-12-09T20:46:32.785Z,62.87
2022-12-09T20:49:00.757Z,64.30
2022-12-09T20:51:37.521Z,62.50
2022-12-09T20:54:04.572Z,64.07
2022-12-09T20:56:31.741Z,62.63
2022-12-09T20:58:58.633Z,67.60
2022-12-09T21:01:30.135Z,61.93
2022-12-09T21:03:58.463Z,60.33
2022-12-09T21:06:27.622Z,65.37
2022-12-09T21:08:53.953Z,66.00
2022-12-09T21:11:22.906Z,62.40
2022-12-09T21:13:51.881Z,63.10
2022-12-09T21:16:24.017Z,58.07
2022-12-09T21:18:51.848Z,58.00
2022-12-09T21:21:19.402Z,57.13
2022-12-09T21:23:46.826Z,60.67
2022-12-09T21:26:18.220Z,67.03
2022-12-09T21:28:46.299Z,60.30
2022-12-09T21:31:24.527Z,64.53
2022-12-09T21:33:53.243Z,58.87
2022-12-09T21:36:28.999Z,59.77
2022-12-09T21:38:55.985Z,60.10
2022-12-09T21:41:25.100Z,66.13
2022-12-09T21:43:52.295Z,56.33
2022-12-09T21:46:20.919Z,60.57
2022-12-09T21:48:52.040Z,64.20
2022-12-09T21:51:19.570Z,60.37
2022-12-09T21:53:46.280Z,61.00
2022-12-09T21:56:20.482Z,66.33
2022-12-09T21:58:49.058Z,60.47
2022-12-09T22:01:24.980Z,65.77
2022-12-09T22:03:51.855Z,72.00
2022-12-09T22:06:18.543Z,64.90
2022-12-09T22:08:45.623Z,64.50
2022-12-09T22:11:13.731Z,58.60
2022-12-09T22:13:40.367Z,60.97
2022-12-09T22:16:07.616Z,61.20
2022-12-09T22:18:34.534Z,69.13
2022-12-09T22:21:24.822Z,63.10
2022-12-09T22:23:58.031Z,56.93
2022-12-09T22:26:25.272Z,58.00
2022-12-09T22:28:52.193Z,55.17
2022-12-09T22:31:24.025Z,57.67
2022-12-09T22:33:52.781Z,60.30
2022-12-09T22:36:19.728Z,57.00
2022-12-09T22:38:46.717Z,60.47
2022-12-09T22:41:16.660Z,55.13
2022-12-09T22:43:43.556Z,57.83
2022-12-09T22:46:11.347Z,59.50
2022-12-09T22:48:39.398Z,52.50
2022-12-09T22:51:08.647Z,58.20
2022-12-09T22:53:35.385Z,56.07
2022-12-09T22:56:01.955Z,57.40
2022-12-09T22:58:28.511Z,55.50
2022-12-09T23:00:55.339Z,51.30
2022-12-09T23:03:21.737Z,55.73
2022-12-09T23:05:48.188Z,54.67
2022-12-09T23:08:14.976Z,52.53
2022-12-09T23:10:42.065Z,54.60
2022-12-09T23:13:08.680Z,50.57
2022-12-09T23:15:35.323Z,51.50
2022-12-09T23:18:01.882Z,51.10
2022-12-09T23:20:28.653Z,53.80
2022-12-09T23:22:55.187Z,52.57
2022-12-09T23:25:21.540Z,51.13
2022-12-09T23:27:47.852Z,61.23
2022-12-09T23:30:14.294Z,62.40
2022-12-09T23:32:40.656Z,62.97
2022-12-09T23:35:07.772Z,57.33
2022-12-09T23:37:34.327Z,67.53
2022-12-09T23:40:00.695Z,67.73
2022-12-09T23:42:27.098Z,59.73
2022-12-09T23:44:53.445Z,59.77
2022-12-09T23:47:19.872Z,65.23
2022-12-09T23:49:46.155Z,64.57
2022-12-09T23:52:12.484Z,62.73
2022-12-09T23:54:39.268Z,66.83
2022-12-09T23:57:05.667Z,68.20
2022-12-09T23:59:32.414Z,73.80
